Time;durP1;ratioP1;P1;durP2;ratioP2;P2;SDS_P1;SDS_P2;PMS_P1;PMS_P2;Temp;Humidity;BMP_temperature;BMP_pressure;BME280_temperature;BME280_humidity;BME280_pressure;Samples;Min_cycle;Max_cycle;Signal;HPM_P1;HPM_P2
2020/12/30 00:01:23;;;;;;;11.23;3.22;;;20.00;99.90;;;;;;5073518;28;20033;-64
2020/12/30 00:03:52;;;;;;;15.25;3.40;;;20.10;99.90;;;;;;5071479;28;20037;-64
2020/12/30 00:06:21;;;;;;;10.65;3.38;;;20.20;99.90;;;;;;5073432;28;20507;-64
2020/12/30 00:08:49;;;;;;;12.45;3.05;;;20.50;99.90;;;;;;5073418;28;20470;-65
2020/12/30 00:11:18;;;;;;;7.90;2.47;;;20.80;99.90;;;;;;5073408;28;20410;-65
2020/12/30 00:13:46;;;;;;;11.40;2.65;;;21.20;99.90;;;;;;5071858;28;20427;-65
2020/12/30 00:16:14;;;;;;;14.80;4.38;;;21.50;99.90;;;;;;5073242;28;20031;-65
2020/12/30 00:18:42;;;;;;;11.02;1.80;;;21.70;99.90;;;;;;5073124;28;20024;-65
2020/12/30 00:21:11;;;;;;;13.75;2.55;;;21.80;99.90;;;;;;5073348;28;20056;-65
2020/12/30 00:23:40;;;;;;;8.23;2.20;;;21.90;99.90;;;;;;5073233;28;20490;-65
2020/12/30 00:26:07;;;;;;;8.90;2.38;;;21.90;99.90;;;;;;5072912;28;20389;-65
2020/12/30 00:28:35;;;;;;;11.40;2.20;;;22.00;99.90;;;;;;5072808;28;20028;-65
2020/12/30 00:31:03;;;;;;;10.25;2.42;;;22.00;99.90;;;;;;5073135;28;20095;-65
2020/12/30 00:33:31;;;;;;;10.27;1.55;;;22.30;99.90;;;;;;5072860;28;20071;-65
2020/12/30 00:35:59;;;;;;;10.00;2.00;;;22.20;99.90;;;;;;5073029;28;20054;-65
2020/12/30 00:38:27;;;;;;;11.10;2.20;;;22.30;99.90;;;;;;5072715;28;20063;-65
2020/12/30 00:40:56;;;;;;;10.55;2.28;;;22.50;99.90;;;;;;5072632;28;20073;-65
2020/12/30 00:43:24;;;;;;;6.78;1.52;;;22.60;99.90;;;;;;5072951;28;20116;-65
2020/12/30 00:45:52;;;;;;;10.02;1.90;;;22.70;99.90;;;;;;5072797;28;20029;-65
2020/12/30 00:48:20;;;;;;;9.78;1.90;;;22.70;99.90;;;;;;4943680;28;4253878;-66
2020/12/30 00:50:48;;;;;;;10.27;1.65;;;22.70;99.90;;;;;;5073713;28;20129;-65
2020/12/30 00:53:16;;;;;;;10.45;1.92;;;22.80;99.90;;;;;;5072039;28;20541;-65
2020/12/30 00:55:44;;;;;;;11.07;2.00;;;22.80;99.90;;;;;;5071546;28;20036;-66
2020/12/30 00:58:12;;;;;;;10.43;1.75;;;23.10;99.90;;;;;;5073609;28;20528;-65
2020/12/30 01:00:40;;;;;;;11.70;1.75;;;23.10;99.90;;;;;;5071894;28;20040;-65
2020/12/30 01:03:08;;;;;;;10.82;2.22;;;23.10;99.90;;;;;;5073412;28;20111;-65
2020/12/30 01:05:35;;;;;;;9.50;1.60;;;23.10;99.90;;;;;;5073477;28;20503;-65
2020/12/30 01:08:04;;;;;;;12.57;2.30;;;23.10;99.90;;;;;;5073054;28;20024;-65
2020/12/30 01:10:32;;;;;;;10.10;2.30;;;23.20;99.90;;;;;;5073167;28;20031;-65
2020/12/30 01:13:00;;;;;;;8.65;2.10;;;23.30;99.90;;;;;;5073399;28;20059;-65
2020/12/30 01:15:27;;;;;;;13.73;2.67;;;23.40;99.90;;;;;;5073099;28;20025;-65
2020/12/30 01:17:56;;;;;;;10.13;2.10;;;23.50;99.90;;;;;;5073276;28;20078;-65
2020/12/30 01:20:23;;;;;;;10.20;1.90;;;23.50;99.90;;;;;;5073293;28;20032;-65
2020/12/30 01:22:51;;;;;;;7.88;2.28;;;23.50;99.90;;;;;;5038135;28;20044;-65
2020/12/30 01:25:19;;;;;;;7.68;1.73;;;23.50;99.90;;;;;;5055291;28;20036;-65
2020/12/30 01:27:47;;;;;;;9.07;2.10;;;23.50;99.90;;;;;;5054412;28;20106;-65
2020/12/30 01:30:15;;;;;;;11.27;1.65;;;23.60;99.90;;;;;;5073075;28;20017;-65
2020/12/30 01:32:42;;;;;;;15.50;2.90;;;23.60;99.90;;;;;;5072909;28;20036;-65
2020/12/30 01:35:11;;;;;;;9.68;1.90;;;23.60;99.90;;;;;;5072961;28;20020;-65
2020/12/30 01:37:39;;;;;;;11.68;1.63;;;23.60;99.90;;;;;;5073060;28;20074;-65
2020/12/30 01:40:07;;;;;;;9.55;1.85;;;23.50;99.90;;;;;;5071486;28;20029;-65
2020/12/30 01:42:46;;;;;;;8.60;2.10;;;23.50;99.90;;;;;;5072729;28;20453;-65
2020/12/30 01:45:15;;;;;;;11.00;1.80;;;23.90;99.90;;;;;;5072673;28;20090;-65
2020/12/30 01:47:47;;;;;;;9.88;1.73;;;24.00;99.90;;;;;;5072500;28;20536;-65
2020/12/30 01:50:16;;;;;;;8.40;2.20;;;24.20;99.90;;;;;;5071256;28;20127;-65
2020/12/30 01:52:44;;;;;;;15.05;2.35;;;24.10;99.90;;;;;;5072603;28;20029;-65
2020/12/30 01:55:12;;;;;;;9.85;1.77;;;24.20;99.90;;;;;;5072929;28;20384;-65
2020/12/30 01:57:40;;;;;;;10.82;1.65;;;24.20;99.90;;;;;;5072639;28;20032;-65
2020/12/30 02:00:11;;;;;;;6.63;1.45;;;24.50;99.90;;;;;;5072618;28;20078;-65
2020/12/30 02:02:45;;;;;;;8.35;2.05;;;24.60;99.90;;;;;;5072696;28;20032;-65
2020/12/30 02:05:14;;;;;;;8.93;1.50;;;24.60;99.90;;;;;;5071296;28;20037;-65
2020/12/30 02:07:43;;;;;;;8.13;2.05;;;24.70;99.90;;;;;;5071278;28;20025;-65
2020/12/30 02:10:11;;;;;;;12.02;1.58;;;24.70;99.90;;;;;;5072810;28;20096;-65
2020/12/30 02:12:40;;;;;;;10.75;2.20;;;24.70;99.90;;;;;;5073808;28;20028;-65
2020/12/30 02:15:08;;;;;;;9.07;1.65;;;24.70;99.90;;;;;;5076112;28;20025;-65
2020/12/30 02:17:35;;;;;;;12.90;2.55;;;24.80;99.90;;;;;;5074916;28;20024;-65
2020/12/30 02:20:03;;;;;;;8.38;1.52;;;24.70;99.90;;;;;;5074747;28;20028;-65
2020/12/30 02:22:32;;;;;;;10.65;1.70;;;24.70;99.90;;;;;;5076256;28;20024;-66
2020/12/30 02:25:00;;;;;;;11.18;2.13;;;24.60;99.90;;;;;;5076302;28;20031;-66
2020/12/30 02:27:27;;;;;;;8.07;1.30;;;24.60;99.90;;;;;;5075887;28;20016;-65
2020/12/30 02:29:55;;;;;;;10.27;1.85;;;24.80;99.90;;;;;;5075929;28;20020;-65
2020/12/30 02:32:23;;;;;;;8.80;2.00;;;24.80;99.90;;;;;;5076096;28;20025;-65
2020/12/30 02:34:51;;;;;;;7.35;1.70;;;24.80;99.90;;;;;;5075745;28;20040;-65
2020/12/30 02:37:21;;;;;;;10.02;2.08;;;24.60;99.90;;;;;;5074617;28;20097;-65
2020/12/30 02:39:49;;;;;;;;;;;24.60;99.90;;;;;;5076515;28;20029;-66
2020/12/30 02:42:17;;;;;;;10.10;1.58;;;24.40;99.90;;;;;;5057717;28;19908;-66
2020/12/30 02:44:45;;;;;;;9.68;1.35;;;24.40;99.90;;;;;;5075589;28;20111;-65
2020/12/30 02:47:13;;;;;;;8.85;1.50;;;24.60;99.90;;;;;;5075799;28;20043;-65
2020/12/30 02:49:41;;;;;;;5.70;1.45;;;24.50;99.90;;;;;;5057773;28;20098;-65
2020/12/30 02:52:09;;;;;;;9.40;1.50;;;24.70;99.90;;;;;;5075772;28;20432;-65
2020/12/30 02:54:37;;;;;;;9.48;1.60;;;24.60;99.90;;;;;;5075376;28;20024;-64
2020/12/30 02:57:04;;;;;;;9.20;2.00;;;24.50;99.90;;;;;;5075481;28;20082;-64
2020/12/30 02:59:32;;;;;;;9.60;1.92;;;24.40;99.90;;;;;;5075427;28;20111;-64
2020/12/30 03:02:00;;;;;;;9.48;1.30;;;24.40;99.90;;;;;;5075575;28;20041;-65
2020/12/30 03:04:27;;;;;;;8.48;1.52;;;24.40;99.90;;;;;;5075421;28;20056;-65
2020/12/30 03:06:55;;;;;;;9.73;1.40;;;24.50;99.90;;;;;;5075249;28;20031;-65
2020/12/30 03:09:23;;;;;;;11.77;1.50;;;24.60;99.90;;;;;;5075382;28;20030;-64
2020/12/30 03:11:51;;;;;;;9.32;2.08;;;24.50;99.90;;;;;;5075393;28;20027;-64
2020/12/30 03:14:20;;;;;;;10.80;1.73;;;24.60;99.90;;;;;;5075461;28;20127;-64
2020/12/30 03:16:48;;;;;;;6.65;1.13;;;24.70;99.90;;;;;;5075363;28;20017;-64
2020/12/30 03:19:16;;;;;;;9.93;1.77;;;24.90;99.90;;;;;;5074166;28;20073;-64
2020/12/30 03:21:44;;;;;;;14.85;2.55;;;25.10;99.90;;;;;;5075075;28;20032;-64
2020/12/30 03:24:11;;;;;;;9.82;1.88;;;25.30;99.90;;;;;;5073756;28;20389;-64
2020/12/30 03:26:39;;;;;;;6.93;1.30;;;25.40;99.90;;;;;;5075120;28;20557;-64
2020/12/30 03:29:07;;;;;;;7.40;1.17;;;25.30;99.90;;;;;;5074909;28;20033;-64
2020/12/30 03:31:35;;;;;;;11.32;1.55;;;25.30;99.90;;;;;;5075068;28;20047;-64
2020/12/30 03:34:03;;;;;;;9.45;1.60;;;25.10;99.90;;;;;;5074514;28;20066;-64
2020/12/30 03:36:31;;;;;;;9.13;1.50;;;25.00;99.90;;;;;;5074370;28;20033;-64
2020/12/30 03:38:59;;;;;;;8.18;1.60;;;24.80;99.90;;;;;;5075163;28;20037;-64
2020/12/30 03:41:27;;;;;;;10.45;1.63;;;24.60;99.90;;;;;;5074567;28;20060;-64
2020/12/30 03:43:55;;;;;;;8.43;1.70;;;24.60;99.90;;;;;;5074573;28;20492;-64
2020/12/30 03:46:23;;;;;;;8.68;1.58;;;24.50;99.90;;;;;;5074863;28;20112;-64
2020/12/30 03:48:51;;;;;;;10.50;1.73;;;24.70;99.90;;;;;;5072837;28;20048;-64
2020/12/30 03:51:19;;;;;;;7.80;1.70;;;24.80;99.90;;;;;;5074649;28;20098;-64
2020/12/30 03:53:46;;;;;;;11.20;1.80;;;24.80;99.90;;;;;;5074328;28;20020;-64
2020/12/30 03:56:14;;;;;;;7.53;1.60;;;24.70;99.90;;;;;;5074278;28;20032;-63
2020/12/30 03:58:42;;;;;;;6.03;1.15;;;24.60;99.90;;;;;;5074230;28;20100;-64
2020/12/30 04:01:10;;;;;;;9.18;1.45;;;24.70;99.90;;;;;;5074406;28;20425;-63
2020/12/30 04:03:38;;;;;;;13.57;2.13;;;24.70;99.90;;;;;;5072489;28;20111;-64
2020/12/30 04:06:06;;;;;;;11.20;1.90;;;24.50;99.90;;;;;;5073193;28;20500;-64
2020/12/30 04:08:33;;;;;;;4.13;1.20;;;24.40;99.90;;;;;;5074022;28;20035;-63
2020/12/30 04:11:01;;;;;;;10.43;1.70;;;24.10;99.90;;;;;;5072656;28;20048;-63
2020/12/30 04:13:29;;;;;;;14.63;2.40;;;24.20;99.90;;;;;;5074189;28;20070;-63
2020/12/30 04:15:57;;;;;;;10.18;1.70;;;24.40;99.90;;;;;;5074199;28;20036;-63
2020/12/30 04:18:28;;;;;;;8.35;1.48;;;24.30;99.90;;;;;;5055508;28;20028;-63
2020/12/30 04:20:56;;;;;;;7.65;2.05;;;24.30;99.90;;;;;;5074198;28;20381;-63
2020/12/30 04:23:24;;;;;;;7.22;1.50;;;24.30;99.90;;;;;;5074248;28;20537;-63
2020/12/30 04:25:51;;;;;;;10.52;1.70;;;24.40;99.90;;;;;;5073906;28;20031;-63
2020/12/30 04:28:19;;;;;;;8.73;1.48;;;24.30;99.90;;;;;;5073587;28;20020;-63
2020/12/30 04:30:47;;;;;;;8.40;1.45;;;24.10;99.90;;;;;;5073685;28;20022;-63
2020/12/30 04:33:14;;;;;;;10.85;1.52;;;24.10;99.90;;;;;;5073949;28;20020;-64
2020/12/30 04:35:42;;;;;;;15.07;2.20;;;24.00;99.90;;;;;;5073282;28;20120;-64
2020/12/30 04:38:10;;;;;;;9.57;1.80;;;23.80;99.90;;;;;;5073738;28;20070;-63
2020/12/30 04:40:40;;;;;;;9.02;1.70;;;23.70;99.90;;;;;;5073560;28;20103;-63
2020/12/30 04:43:10;;;;;;;8.93;2.08;;;23.50;99.90;;;;;;5073744;28;20361;-63
2020/12/30 04:45:38;;;;;;;7.88;1.55;;;23.30;99.90;;;;;;5073547;28;20090;-64
2020/12/30 04:48:09;;;;;;;10.23;2.05;;;23.30;99.90;;;;;;5073611;28;20024;-63
2020/12/30 04:50:37;;;;;;;6.95;1.90;;;23.20;99.90;;;;;;5073262;28;20492;-63
2020/12/30 04:53:06;;;;;;;7.47;1.65;;;23.10;99.90;;;;;;5073608;28;20028;-63
2020/12/30 04:55:34;;;;;;;8.93;1.88;;;23.00;99.90;;;;;;5073567;28;20024;-63
2020/12/30 04:58:10;;;;;;;8.00;1.20;;;23.00;99.90;;;;;;5054710;28;20032;-64
2020/12/30 05:00:39;;;;;;;8.43;1.17;;;22.90;99.90;;;;;;5073598;28;20028;-64
2020/12/30 05:03:10;;;;;;;9.50;1.70;;;23.10;99.90;;;;;;5073478;28;20431;-64
2020/12/30 05:05:40;;;;;;;13.00;1.90;;;23.00;99.90;;;;;;5073533;28;20021;-64
2020/12/30 05:08:13;;;;;;;10.45;1.40;;;23.00;99.90;;;;;;5073383;28;20392;-64
2020/12/30 05:10:46;;;;;;;8.63;1.60;;;23.00;99.90;;;;;;5073278;28;20013;-64
2020/12/30 05:13:14;;;;;;;11.30;1.17;;;22.90;99.90;;;;;;5073331;28;20032;-64
2020/12/30 05:15:42;;;;;;;9.60;1.75;;;22.90;99.90;;;;;;5073125;28;20017;-64
2020/12/30 05:18:10;;;;;;;8.45;1.77;;;22.90;99.90;;;;;;5073376;28;20029;-64
2020/12/30 05:20:38;;;;;;;7.32;1.55;;;22.90;99.90;;;;;;5054751;28;20033;-64
2020/12/30 05:23:09;;;;;;;6.85;1.63;;;23.00;99.90;;;;;;5073553;28;20388;-64
2020/12/30 05:25:40;;;;;;;8.20;1.40;;;22.90;99.90;;;;;;5073280;28;20020;-64
2020/12/30 05:28:09;;;;;;;;;;;22.80;99.90;;;;;;5073690;28;20380;-64
2020/12/30 05:30:38;;;;;;;9.57;1.48;;;22.70;99.90;;;;;;5073231;28;20349;-64
2020/12/30 05:33:06;;;;;;;9.65;1.58;;;22.60;99.90;;;;;;5073184;28;20459;-64
2020/12/30 05:35:35;;;;;;;6.93;1.33;;;22.40;99.90;;;;;;5072892;28;20024;-64
2020/12/30 05:38:04;;;;;;;8.18;1.33;;;22.40;99.90;;;;;;5073153;28;20483;-64
2020/12/30 05:40:34;;;;;;;8.95;1.52;;;22.40;99.90;;;;;;5072894;28;20024;-64
2020/12/30 05:43:21;;;;;;;10.70;2.00;;;22.30;99.90;;;;;;5071555;28;20028;-64
2020/12/30 05:45:53;;;;;;;10.13;1.77;;;22.10;99.90;;;;;;5073049;28;20265;-64
2020/12/30 05:48:22;;;;;;;8.23;1.42;;;22.00;99.90;;;;;;5076245;28;20024;-64
2020/12/30 05:50:51;;;;;;;7.50;1.50;;;21.90;99.90;;;;;;5075443;28;20036;-64
2020/12/30 05:53:20;;;;;;;10.30;1.85;;;21.90;99.90;;;;;;5075321;28;20477;-64
2020/12/30 05:55:51;;;;;;;11.48;2.03;;;21.80;99.90;;;;;;5076852;28;20028;-63
2020/12/30 05:58:19;;;;;;;6.72;1.30;;;21.80;99.90;;;;;;5076464;28;20028;-64
2020/12/30 06:00:48;;;;;;;5.00;1.20;;;21.80;99.90;;;;;;5076731;28;20039;-64
2020/12/30 06:03:28;;;;;;;7.90;1.58;;;21.90;99.90;;;;;;5057972;28;20068;-64
2020/12/30 06:05:57;;;;;;;9.60;1.40;;;21.90;99.90;;;;;;5075102;28;20419;-64
2020/12/30 06:08:30;;;;;;;6.78;1.40;;;21.90;99.90;;;;;;5076251;28;20035;-64
2020/12/30 06:11:00;;;;;;;9.35;1.20;;;21.80;99.90;;;;;;5076310;28;20045;-64
2020/12/30 06:13:31;;;;;;;7.18;1.58;;;21.90;99.90;;;;;;5076264;28;20028;-64
2020/12/30 06:16:02;;;;;;;10.05;1.42;;;21.80;99.90;;;;;;5076256;28;20067;-64
2020/12/30 06:18:37;;;;;;;9.85;1.38;;;21.90;99.90;;;;;;5076204;28;20029;-64
2020/12/30 06:21:08;;;;;;;7.32;1.33;;;21.90;99.90;;;;;;5075271;28;20029;-64
2020/12/30 06:23:38;;;;;;;7.78;1.67;;;21.80;99.90;;;;;;5076162;28;20025;-64
2020/12/30 06:26:11;;;;;;;8.18;1.55;;;21.80;99.90;;;;;;5076635;28;20475;-64
2020/12/30 06:28:39;;;;;;;7.53;1.63;;;21.70;99.90;;;;;;5074723;28;20497;-64
2020/12/30 06:31:07;;;;;;;9.82;0.93;;;21.70;99.90;;;;;;5076086;28;20024;-64
2020/12/30 06:33:35;;;;;;;11.45;1.42;;;21.70;99.90;;;;;;5075820;28;20426;-64
2020/12/30 06:36:03;;;;;;;7.60;1.20;;;21.70;99.90;;;;;;5076031;28;20028;-64
2020/12/30 06:38:32;;;;;;;5.65;1.20;;;21.70;99.90;;;;;;5076054;28;20078;-64
2020/12/30 06:41:00;;;;;;;5.20;1.15;;;21.60;99.90;;;;;;5075706;28;20033;-64
2020/12/30 06:43:48;;;;;;;7.38;1.00;;;21.70;99.90;;;;;;5075757;28;20075;-64
2020/12/30 06:46:36;;;;;;;8.30;1.73;;;21.60;99.90;;;;;;5053542;28;20036;-64
2020/12/30 06:49:06;;;;;;;9.40;1.33;;;21.70;99.90;;;;;;5053487;28;20124;-64
2020/12/30 06:51:40;;;;;;;6.03;1.50;;;21.70;99.90;;;;;;5053536;28;20028;-64
2020/12/30 06:54:08;;;;;;;3.92;1.02;;;21.70;99.90;;;;;;5053439;28;20030;-64
2020/12/30 06:56:44;;;;;;;8.25;1.23;;;21.70;99.90;;;;;;5053353;28;20028;-64
2020/12/30 06:59:28;;;;;;;5.95;1.05;;;21.70;99.90;;;;;;5053189;28;20037;-64
2020/12/30 07:02:03;;;;;;;10.43;1.35;;;21.70;99.90;;;;;;5053341;28;20041;-64
2020/12/30 07:04:34;;;;;;;6.20;1.05;;;21.70;99.90;;;;;;5037405;28;20024;-64
2020/12/30 07:07:02;;;;;;;5.88;1.33;;;21.60;99.90;;;;;;5053181;28;20040;-64
2020/12/30 07:09:35;;;;;;;7.03;1.55;;;21.50;99.90;;;;;;5053059;28;20033;-63
2020/12/30 07:12:06;;;;;;;4.78;1.25;;;21.40;99.90;;;;;;5053118;28;20036;-63
2020/12/30 07:14:37;;;;;;;6.45;1.30;;;21.40;99.90;;;;;;5036454;28;20429;-63
2020/12/30 07:17:07;;;;;;;4.78;1.55;;;21.40;99.90;;;;;;5051592;28;20033;-64
2020/12/30 07:19:37;;;;;;;7.45;1.40;;;21.40;99.90;;;;;;5075347;28;20430;-64
2020/12/30 07:22:13;;;;;;;4.88;0.98;;;21.30;99.90;;;;;;5075358;28;20048;-63
2020/12/30 07:25:03;;;;;;;7.75;1.42;;;21.40;99.90;;;;;;5075017;28;20035;-64
2020/12/30 07:27:31;;;;;;;8.52;1.05;;;21.40;99.90;;;;;;5052677;28;20083;-63
2020/12/30 07:30:00;;;;;;;9.95;1.35;;;21.30;99.90;;;;;;5052694;28;20044;-64
2020/12/30 07:32:32;;;;;;;8.02;1.23;;;21.30;99.90;;;;;;5052699;28;20029;-64
2020/12/30 07:35:01;;;;;;;7.80;1.30;;;21.30;99.90;;;;;;5052732;28;20056;-64
2020/12/30 07:37:29;;;;;;;12.10;1.33;;;21.40;99.90;;;;;;5035942;28;20405;-64
2020/12/30 07:39:57;;;;;;;9.23;1.50;;;21.40;99.90;;;;;;5035923;28;20490;-64
2020/12/30 07:42:29;;;;;;;7.07;1.33;;;21.30;99.90;;;;;;5052409;28;20479;-64
2020/12/30 07:44:59;;;;;;;7.03;1.52;;;21.30;99.90;;;;;;5052658;28;20063;-64
2020/12/30 07:47:28;;;;;;;6.30;1.10;;;21.20;99.90;;;;;;5052333;28;20053;-64
2020/12/30 07:50:04;;;;;;;6.03;1.20;;;21.20;99.90;;;;;;5052100;28;20052;-64
2020/12/30 07:52:33;;;;;;;6.97;1.15;;;21.20;99.90;;;;;;5052292;28;20112;-64
2020/12/30 07:55:01;;;;;;;7.82;1.58;;;21.20;99.90;;;;;;5052181;28;20025;-64
2020/12/30 07:57:30;;;;;;;7.25;1.50;;;21.20;99.90;;;;;;5054562;28;20029;-64
2020/12/30 07:59:58;;;;;;;6.38;2.15;;;21.10;99.90;;;;;;5074140;28;20095;-64
2020/12/30 08:02:27;;;;;;;7.18;1.35;;;21.10;99.90;;;;;;5074118;28;20045;-64
2020/12/30 08:05:02;;;;;;;7.28;1.70;;;21.10;99.90;;;;;;5074088;28;20059;-63
2020/12/30 08:07:31;;;;;;;4.75;1.50;;;21.10;99.90;;;;;;5039424;28;20457;-64
2020/12/30 08:09:59;;;;;;;7.72;1.77;;;21.10;99.90;;;;;;5073637;28;20057;-64
2020/12/30 08:12:28;;;;;;;8.40;1.50;;;21.00;99.90;;;;;;5072673;28;20480;-63
2020/12/30 08:14:56;;;;;;;10.55;1.60;;;21.00;99.90;;;;;;5074168;28;20099;-63
2020/12/30 08:17:25;;;;;;;7.03;1.55;;;21.00;99.90;;;;;;5074039;28;20028;-63
2020/12/30 08:19:53;;;;;;;6.72;1.52;;;21.00;99.90;;;;;;5072502;28;20036;-63
2020/12/30 08:22:25;;;;;;;7.32;1.52;;;20.90;99.90;;;;;;5073749;28;20021;-63
2020/12/30 08:24:55;;;;;;;8.80;1.63;;;20.90;99.90;;;;;;5073844;28;20028;-64
2020/12/30 08:27:27;;;;;;;7.60;1.65;;;20.90;99.90;;;;;;5073919;28;20477;-64
2020/12/30 08:30:01;;;;;;;6.40;1.70;;;20.90;99.90;;;;;;5073848;28;20029;-64
2020/12/30 08:32:49;;;;;;;6.90;1.42;;;20.90;99.90;;;;;;5073895;28;20020;-64
2020/12/30 08:35:21;;;;;;;6.80;1.20;;;20.90;99.90;;;;;;5074064;28;20028;-64
2020/12/30 08:38:03;;;;;;;7.57;1.25;;;20.90;99.90;;;;;;5073606;28;20040;-63
2020/12/30 08:40:34;;;;;;;8.45;1.45;;;20.90;99.90;;;;;;5073431;28;20067;-63
2020/12/30 08:43:44;;;;;;;5.65;1.10;;;20.80;99.90;;;;;;5073789;28;20036;-64
2020/12/30 08:46:25;;;;;;;6.90;1.00;;;20.80;99.90;;;;;;5011619;28;20398;-64
2020/12/30 08:48:55;;;;;;;5.43;1.38;;;20.70;99.90;;;;;;5011555;28;20064;-63
2020/12/30 08:51:28;;;;;;;6.90;1.67;;;20.70;99.90;;;;;;5011661;28;20042;-64
2020/12/30 08:53:56;;;;;;;7.80;2.05;;;20.70;99.90;;;;;;5011578;28;20025;-64
2020/12/30 08:56:25;;;;;;;6.60;1.85;;;20.60;99.90;;;;;;5011379;28;20056;-63
2020/12/30 08:58:55;;;;;;;8.85;1.65;;;20.60;99.90;;;;;;4963254;28;20121;-64
2020/12/30 09:01:31;;;;;;;10.52;1.85;;;20.50;99.90;;;;;;5011594;28;20034;-64
2020/12/30 09:04:18;;;;;;;8.93;1.50;;;20.50;99.90;;;;;;5011553;28;20475;-63
2020/12/30 09:06:52;;;;;;;7.60;1.40;;;20.50;99.90;;;;;;4972530;28;20082;-63
2020/12/30 09:09:20;;;;;;;11.48;2.05;;;20.50;99.90;;;;;;4972372;28;20042;-64
2020/12/30 09:11:53;;;;;;;8.32;2.17;;;20.40;99.90;;;;;;4972414;28;20030;-63
2020/12/30 09:14:24;;;;;;;9.77;1.73;;;20.40;99.90;;;;;;4956293;28;20570;-64
2020/12/30 09:16:58;;;;;;;12.73;3.08;;;20.30;99.90;;;;;;4982788;28;20038;-63
2020/12/30 09:19:27;;;;;;;7.60;1.90;;;20.30;99.90;;;;;;4975474;28;20526;-64
2020/12/30 09:22:14;;;;;;;8.32;2.10;;;20.20;99.90;;;;;;4994671;28;20046;-64
2020/12/30 09:24:44;;;;;;;9.43;2.20;;;20.20;99.90;;;;;;5053860;28;20041;-64
2020/12/30 09:27:33;;;;;;;8.52;2.63;;;20.10;99.90;;;;;;5055184;28;20036;-64
2020/12/30 09:30:13;;;;;;;9.15;2.08;;;20.10;99.90;;;;;;5015450;28;20052;-64
2020/12/30 09:32:44;;;;;;;7.68;1.70;;;20.00;99.90;;;;;;5015377;28;20049;-64
2020/12/30 09:35:15;;;;;;;7.00;1.95;;;20.00;99.90;;;;;;5015237;28;20057;-64
2020/12/30 09:37:56;;;;;;;8.35;2.40;;;20.00;99.90;;;;;;5035175;28;20033;-64
2020/12/30 09:40:25;;;;;;;12.57;2.72;;;20.00;99.90;;;;;;5054749;28;20041;-64
2020/12/30 09:43:07;;;;;;;8.10;2.80;;;19.90;99.90;;;;;;5054860;28;20021;-64
2020/12/30 09:45:35;;;;;;;5.47;2.47;;;19.90;99.90;;;;;;5054766;28;20378;-63
2020/12/30 09:48:16;;;;;;;7.68;2.60;;;19.90;99.90;;;;;;5054624;28;20080;-63
2020/12/30 09:50:45;;;;;;;;;;;19.90;99.90;;;;;;5055029;28;20033;-64
2020/12/30 09:53:14;;;;;;;10.73;9.70;;;19.80;99.90;;;;;;5037771;28;20357;-64
2020/12/30 09:55:47;;;;;;;10.38;9.32;;;19.80;99.90;;;;;;5054569;28;20033;-64
2020/12/30 09:58:15;;;;;;;12.70;9.45;;;19.70;99.90;;;;;;5037934;28;20114;-64
2020/12/30 10:00:44;;;;;;;11.23;9.52;;;19.70;99.90;;;;;;5063531;28;20166;-63
2020/12/30 10:03:12;;;;;;;10.68;9.57;;;19.70;99.90;;;;;;5058297;28;20041;-64
2020/12/30 10:05:40;;;;;;;11.05;10.00;;;19.60;99.90;;;;;;5058256;28;20044;-64
2020/12/30 10:08:08;;;;;;;11.73;9.40;;;19.60;99.90;;;;;;5076543;28;20029;-64
2020/12/30 10:10:36;;;;;;;12.88;9.35;;;19.60;99.90;;;;;;5076561;28;20020;-64
2020/12/30 10:13:04;;;;;;;13.18;9.20;;;19.50;99.90;;;;;;5076285;28;20066;-64
2020/12/30 10:15:32;;;;;;;9.55;8.63;;;19.50;99.90;;;;;;5076515;28;20376;-64
2020/12/30 10:18:01;;;;;;;13.02;9.68;;;19.40;99.90;;;;;;5076218;28;20021;-64
2020/12/30 10:20:29;;;;;;;10.43;9.57;;;19.40;99.90;;;;;;5076387;28;20029;-64
2020/12/30 10:22:57;;;;;;;10.75;9.30;;;19.40;99.90;;;;;;5076377;28;20060;-64
2020/12/30 10:25:26;;;;;;;9.63;8.77;;;19.40;99.90;;;;;;5076381;28;20493;-64
2020/12/30 10:27:54;;;;;;;10.35;8.95;;;19.30;99.90;;;;;;5076230;28;20024;-64
2020/12/30 10:30:22;;;;;;;9.25;8.05;;;19.30;99.90;;;;;;5074960;28;20046;-64
2020/12/30 10:32:50;;;;;;;13.88;8.38;;;19.20;99.90;;;;;;5073644;28;20449;-64
2020/12/30 10:35:18;;;;;;;10.85;7.53;;;19.20;99.90;;;;;;5075002;28;20059;-63
2020/12/30 10:37:46;;;;;;;11.18;8.32;;;19.20;99.90;;;;;;5075831;28;20021;-64
2020/12/30 10:40:14;;;;;;;10.13;8.40;;;19.20;99.90;;;;;;5075765;28;20091;-63
2020/12/30 10:42:42;;;;;;;11.82;9.02;;;19.20;99.90;;;;;;5057401;28;20029;-64
2020/12/30 10:45:10;;;;;;;11.02;8.55;;;19.20;99.90;;;;;;5075952;28;20384;-63
2020/12/30 10:47:39;;;;;;;9.20;7.90;;;19.20;99.90;;;;;;5075818;28;20021;-63
2020/12/30 10:50:07;;;;;;;11.48;9.07;;;19.10;99.90;;;;;;5075417;28;20063;-64
2020/12/30 10:52:35;;;;;;;9.88;8.75;;;19.10;99.90;;;;;;5075534;28;20023;-64
2020/12/30 10:55:04;;;;;;;10.82;9.30;;;19.10;99.90;;;;;;5075523;28;20489;-64
2020/12/30 10:57:32;;;;;;;11.48;8.93;;;19.00;99.90;;;;;;5075462;28;20020;-63
2020/12/30 11:00:00;;;;;;;9.73;8.82;;;19.00;99.90;;;;;;5075667;28;20024;-64
2020/12/30 11:02:28;;;;;;;18.10;9.88;;;19.00;99.90;;;;;;5073614;28;20481;-63
2020/12/30 11:04:56;;;;;;;10.38;8.82;;;19.00;99.90;;;;;;5075350;28;20427;-63
2020/12/30 11:07:24;;;;;;;10.95;8.88;;;19.00;99.90;;;;;;5074011;28;20055;-64
2020/12/30 11:09:52;;;;;;;9.57;8.68;;;19.00;99.90;;;;;;5075079;28;20036;-63
2020/12/30 11:12:21;;;;;;;10.75;9.18;;;19.00;99.90;;;;;;5075572;28;20380;-64
2020/12/30 11:14:49;;;;;;;10.30;9.10;;;19.00;99.90;;;;;;5075131;28;20107;-64
2020/12/30 11:17:17;;;;;;;10.18;9.30;;;19.00;99.90;;;;;;5075113;28;20024;-64
2020/12/30 11:19:45;;;;;;;11.00;8.90;;;19.00;99.90;;;;;;5075027;28;20031;-63
2020/12/30 11:22:13;;;;;;;10.10;9.10;;;19.00;99.90;;;;;;5075286;28;20073;-64
2020/12/30 11:24:41;;;;;;;11.00;9.45;;;19.00;99.90;;;;;;5075304;28;20018;-64
2020/12/30 11:27:09;;;;;;;10.52;9.55;;;19.10;99.90;;;;;;5056640;28;20036;-64
2020/12/30 11:29:37;;;;;;;9.77;8.85;;;19.10;99.90;;;;;;5074734;28;20033;-64
2020/12/30 11:32:05;;;;;;;11.68;8.98;;;19.10;99.90;;;;;;5074832;28;20089;-64
2020/12/30 11:34:34;;;;;;;10.35;8.82;;;19.00;99.90;;;;;;5075010;28;20488;-64
2020/12/30 11:37:02;;;;;;;11.98;9.43;;;19.00;99.90;;;;;;5074938;28;20016;-67
2020/12/30 11:39:30;;;;;;;9.90;8.90;;;19.00;99.90;;;;;;5056515;28;20056;-64
2020/12/30 11:41:58;;;;;;;10.48;8.55;;;19.00;99.90;;;;;;5074595;28;20403;-63
2020/12/30 11:44:27;;;;;;;10.38;8.50;;;19.00;99.90;;;;;;5073848;28;20028;-64
2020/12/30 11:46:55;;;;;;;12.00;9.10;;;18.90;99.90;;;;;;5072896;28;20037;-64
2020/12/30 11:49:23;;;;;;;10.00;8.77;;;18.90;99.90;;;;;;5074424;28;20055;-64
2020/12/30 11:51:51;;;;;;;9.35;8.35;;;19.00;99.90;;;;;;5074460;28;20558;-63
2020/12/30 11:54:20;;;;;;;13.75;9.38;;;18.90;99.90;;;;;;5072280;28;20433;-64
2020/12/30 11:56:48;;;;;;;11.70;8.82;;;18.90;99.90;;;;;;5055781;28;20056;-64
2020/12/30 11:59:16;;;;;;;9.85;8.82;;;18.80;99.90;;;;;;5072155;28;20032;-64
2020/12/30 12:01:44;;;;;;;15.68;8.70;;;18.80;99.90;;;;;;5072251;28;20029;-64
2020/12/30 12:04:12;;;;;;;9.13;8.43;;;18.70;99.90;;;;;;5072132;28;20044;-64
2020/12/30 12:06:41;;;;;;;9.25;8.25;;;18.70;99.90;;;;;;5072222;28;20029;-64
2020/12/30 12:09:09;;;;;;;9.88;8.80;;;18.70;99.90;;;;;;5071847;28;20045;-63
2020/12/30 12:11:38;;;;;;;9.77;8.82;;;18.70;99.90;;;;;;5072027;28;20020;-64
2020/12/30 12:14:06;;;;;;;9.70;8.80;;;18.70;99.90;;;;;;5071966;28;20039;-64
2020/12/30 12:16:34;;;;;;;11.07;8.80;;;18.70;99.90;;;;;;5071942;28;20048;-64
2020/12/30 12:19:02;;;;;;;9.85;8.73;;;18.70;99.90;;;;;;5072018;28;20512;-64
2020/12/30 12:21:30;;;;;;;11.48;8.75;;;18.70;99.90;;;;;;5071808;28;20032;-64
2020/12/30 12:23:58;;;;;;;11.18;9.40;;;18.60;99.90;;;;;;5071795;28;20020;-64
2020/12/30 12:26:27;;;;;;;10.93;9.25;;;18.60;99.90;;;;;;5073662;28;20040;-64
2020/12/30 12:29:17;;;;;;;10.45;9.38;;;18.50;99.90;;;;;;5055677;28;20109;-64
2020/12/30 12:31:45;;;;;;;10.32;9.20;;;18.50;99.90;;;;;;5073803;28;20105;-64
2020/12/30 12:34:13;;;;;;;9.75;8.85;;;18.40;99.90;;;;;;5073766;28;20025;-64
2020/12/30 12:36:41;;;;;;;9.90;8.90;;;18.40;99.90;;;;;;5073732;28;20032;-64
2020/12/30 12:39:09;;;;;;;10.43;9.00;;;18.40;99.90;;;;;;5073776;28;20024;-64
2020/12/30 12:41:37;;;;;;;10.40;9.07;;;18.40;99.90;;;;;;5073525;28;20024;-64
2020/12/30 12:44:05;;;;;;;10.10;9.13;;;18.40;99.90;;;;;;5073528;28;20095;-64
2020/12/30 12:46:33;;;;;;;12.18;9.35;;;18.40;99.90;;;;;;5073494;28;20029;-64
2020/12/30 12:49:01;;;;;;;9.85;8.75;;;18.50;99.90;;;;;;5073058;28;20041;-64
2020/12/30 12:51:29;;;;;;;9.20;8.50;;;18.60;99.90;;;;;;5073387;28;20028;-64
2020/12/30 12:53:57;;;;;;;10.05;9.25;;;18.60;99.90;;;;;;5073685;28;20358;-64
2020/12/30 12:56:25;;;;;;;9.23;8.63;;;18.60;99.90;;;;;;5073209;28;20024;-65